Time;durP1;ratioP1;P1;durP2;ratioP2;P2;SDS_P1;SDS_P2;PMS_P1;PMS_P2;Temp;Humidity;BMP_temperature;BMP_pressure;BME280_temperature;BME280_humidity;BME280_pressure;Samples;Min_cycle;Max_cycle;Signal;HPM_P1;HPM_P2
2023/05/06 00:02:21;;;;;;;2.80;1.80;;;22.20;99.90;;;;;;5075005;28;20569;-69
2023/05/06 00:04:48;;;;;;;4.93;1.37;;;22.30;99.90;;;;;;5075158;28;20180;-69
2023/05/06 00:07:16;;;;;;;3.20;1.50;;;22.70;99.90;;;;;;5075659;28;20180;-68
2023/05/06 00:09:44;;;;;;;4.87;1.53;;;22.90;99.90;;;;;;5075109;28;20637;-68
2023/05/06 00:12:11;;;;;;;2.20;1.30;;;23.50;98.60;;;;;;5074957;28;20180;-69
2023/05/06 00:14:39;;;;;;;5.17;1.77;;;23.60;93.60;;;;;;5074663;28;20638;-69
2023/05/06 00:17:07;;;;;;;2.83;1.37;;;23.40;92.90;;;;;;5074948;28;20266;-66
2023/05/06 00:19:35;;;;;;;3.93;1.40;;;23.60;90.30;;;;;;5074792;28;20255;-68
2023/05/06 00:22:03;;;;;;;2.90;1.30;;;23.60;91.10;;;;;;5074484;28;20384;-69
2023/05/06 00:24:30;;;;;;;3.60;1.60;;;24.10;85.60;;;;;;5074566;28;20210;-66
2023/05/06 00:26:58;;;;;;;3.40;1.47;;;24.30;90.00;;;;;;5074643;28;20176;-67
2023/05/06 00:29:26;;;;;;;3.57;1.50;;;24.40;89.30;;;;;;5074537;28;20180;-67
2023/05/06 00:31:53;;;;;;;3.03;1.53;;;24.90;81.00;;;;;;5074502;28;20180;-68
2023/05/06 00:34:21;;;;;;;3.53;1.37;;;25.20;77.00;;;;;;5074333;28;20176;-68
2023/05/06 00:36:49;;;;;;;4.53;1.40;;;25.70;76.10;;;;;;5074262;28;20622;-68
2023/05/06 00:39:17;;;;;;;4.87;1.70;;;25.80;70.60;;;;;;5074443;28;20254;-68
2023/05/06 00:41:44;;;;;;;3.27;1.63;;;26.10;65.40;;;;;;5074207;28;20180;-68
2023/05/06 00:44:12;;;;;;;9.23;1.40;;;25.70;58.90;;;;;;5074219;28;20210;-68
2023/05/06 00:50:02;;;;;;;5.73;1.47;;;25.10;50.30;;;;;;5073474;28;20187;-68
2023/05/06 00:52:30;;;;;;;3.33;1.53;;;24.40;50.40;;;;;;5074448;28;20195;-68
2023/05/06 00:54:58;;;;;;;5.30;1.50;;;23.80;54.20;;;;;;5072889;28;20176;-68
2023/05/06 00:57:26;;;;;;;3.40;1.20;;;23.80;54.80;;;;;;5073862;28;20234;-69
2023/05/06 00:59:54;;;;;;;4.60;1.73;;;24.40;57.20;;;;;;5074506;28;20172;-69
2023/05/06 01:02:22;;;;;;;3.30;1.50;;;24.20;57.50;;;;;;5073787;28;20211;-68
2023/05/06 01:04:50;;;;;;;4.07;1.20;;;24.30;57.60;;;;;;5073781;28;20605;-68
2023/05/06 01:07:30;;;;;;;4.47;1.50;;;23.70;55.00;;;;;;5073774;28;20210;-69
2023/05/06 01:10:04;;;;;;;5.27;1.57;;;24.00;58.60;;;;;;5074158;28;20183;-69
2023/05/06 01:12:43;;;;;;;3.30;1.60;;;23.80;57.00;;;;;;5074094;28;20668;-69
2023/05/06 01:15:38;;;;;;;2.37;1.40;;;23.50;58.50;;;;;;5073935;28;20176;-69
2023/05/06 01:18:10;;;;;;;3.83;1.47;;;23.70;58.60;;;;;;5073723;28;20186;-69
2023/05/06 01:20:42;;;;;;;2.37;1.43;;;23.70;57.20;;;;;;5072787;28;20682;-69
2023/05/06 01:23:13;;;;;;;4.27;1.47;;;24.10;64.60;;;;;;5073315;28;20230;-69
2023/05/06 01:25:42;;;;;;;4.40;1.60;;;24.80;57.70;;;;;;5073332;28;20226;-69
2023/05/06 01:28:11;;;;;;;3.23;1.27;;;25.20;54.70;;;;;;5073380;28;20214;-69
2023/05/06 01:31:07;;;;;;;5.57;1.87;;;25.20;54.80;;;;;;5073439;28;20226;-69
2023/05/06 01:33:59;;;;;;;4.23;1.70;;;25.70;55.50;;;;;;5073375;28;20729;-68
2023/05/06 01:36:39;;;;;;;8.33;2.07;;;25.40;56.30;;;;;;5073290;28;20184;-68
2023/05/06 01:39:31;;;;;;;3.97;1.30;;;25.60;52.80;;;;;;5073347;28;20172;-68
2023/05/06 01:42:02;;;;;;;3.03;1.20;;;25.40;52.50;;;;;;5073102;28;20168;-68
2023/05/06 01:44:33;;;;;;;3.43;1.37;;;25.40;53.10;;;;;;5073377;28;20181;-66
2023/05/06 01:47:01;;;;;;;2.10;1.47;;;25.20;52.40;;;;;;5073446;28;20217;-69
2023/05/06 01:49:29;;;;;;;3.17;1.60;;;25.40;52.20;;;;;;5073362;28;20179;-69
2023/05/06 01:51:57;;;;;;;4.80;1.73;;;25.50;49.90;;;;;;5072963;28;20176;-69
2023/05/06 01:54:25;;;;;;;5.37;1.33;;;25.60;52.30;;;;;;5073196;28;20183;-69
2023/05/06 01:56:53;;;;;;;3.57;1.33;;;25.90;53.40;;;;;;5070939;28;20183;-69
2023/05/06 01:59:20;;;;;;;2.73;1.07;;;25.80;50.80;;;;;;5076295;28;20710;-73
2023/05/06 02:01:48;;;;;;;4.47;1.20;;;26.30;50.00;;;;;;5065823;28;20183;-74
2023/05/06 02:04:16;;;;;;;4.53;1.30;;;26.20;48.30;;;;;;5071573;28;20212;-75
2023/05/06 02:06:44;;;;;;;4.67;1.33;;;25.30;43.20;;;;;;5071620;28;20398;-76
2023/05/06 02:09:11;;;;;;;4.83;1.50;;;25.10;42.70;;;;;;5070642;28;20183;-76
2023/05/06 02:11:39;;;;;;;8.00;2.90;;;25.20;43.10;;;;;;5071513;28;20176;-77
2023/05/06 02:14:07;;;;;;;10.83;2.87;;;25.20;45.60;;;;;;5071140;28;20578;-75
2023/05/06 02:16:35;;;;;;;2.60;1.40;;;25.00;46.10;;;;;;5071028;28;20700;-77
2023/05/06 02:19:02;;;;;;;17.07;1.80;;;25.20;46.60;;;;;;5071058;28;20180;-75
2023/05/06 02:21:30;;;;;;;5.03;1.13;;;25.00;44.30;;;;;;5070634;28;20247;-72
2023/05/06 02:23:58;;;;;;;5.07;1.47;;;24.80;45.30;;;;;;5070590;28;20215;-77
2023/05/06 02:26:26;;;;;;;3.57;1.30;;;25.00;44.50;;;;;;5070210;28;20316;-76
2023/05/06 02:28:54;;;;;;;3.63;1.20;;;25.40;45.50;;;;;;5071457;28;20459;-72
2023/05/06 02:31:21;;;;;;;4.20;1.23;;;25.60;43.00;;;;;;5072108;28;20184;-76
2023/05/06 02:33:49;;;;;;;4.13;1.30;;;25.70;45.90;;;;;;5075619;28;20179;-75
2023/05/06 02:36:17;;;;;;;6.10;0.97;;;26.10;43.30;;;;;;5075386;28;20222;-75
2023/05/06 02:38:45;;;;;;;3.03;1.10;;;26.30;45.30;;;;;;5074965;28;20180;-76
2023/05/06 02:41:12;;;;;;;4.17;1.30;;;25.80;42.60;;;;;;5074629;28;20184;-76
2023/05/06 02:43:40;;;;;;;3.87;1.13;;;25.30;43.70;;;;;;5075270;28;20243;-75
2023/05/06 02:46:08;;;;;;;4.93;1.13;;;25.70;42.70;;;;;;5073346;28;20180;-77
2023/05/06 02:48:36;;;;;;;2.60;1.40;;;25.50;43.00;;;;;;5075048;28;20550;-73
2023/05/06 02:51:05;;;;;;;4.10;1.17;;;26.00;43.70;;;;;;5074862;28;20180;-74
2023/05/06 02:53:32;;;;;;;3.13;1.47;;;26.60;46.20;;;;;;5074540;28;20179;-76
2023/05/06 02:56:00;;;;;;;7.20;1.33;;;26.90;40.20;;;;;;5075033;28;20203;-76
2023/05/06 02:58:28;;;;;;;1.43;0.87;;;26.80;45.70;;;;;;5075052;28;20176;-74
2023/05/06 03:00:56;;;;;;;6.07;1.57;;;26.90;42.40;;;;;;5072242;28;20180;-76
2023/05/06 03:03:24;;;;;;;6.18;1.27;;;27.20;41.20;;;;;;5073182;28;20302;-74
2023/05/06 03:05:51;;;;;;;2.50;1.00;;;27.10;40.00;;;;;;5074656;28;20172;-73
2023/05/06 03:08:19;;;;;;;5.03;1.87;;;26.90;38.80;;;;;;5074508;28;20175;-76
2023/05/06 03:10:47;;;;;;;5.47;1.60;;;26.10;42.40;;;;;;5074272;28;20172;-74
2023/05/06 03:13:15;;;;;;;3.23;1.40;;;26.00;42.40;;;;;;5054860;28;20614;-70
2023/05/06 03:15:43;;;;;;;4.37;1.30;;;25.80;41.00;;;;;;5069005;28;20180;-75
2023/05/06 03:18:11;;;;;;;3.23;1.00;;;25.80;40.30;;;;;;5074700;28;20187;-75
2023/05/06 03:20:39;;;;;;;2.00;1.37;;;25.50;41.30;;;;;;5056703;28;20239;-73
2023/05/06 03:23:07;;;;;;;5.50;1.57;;;25.20;43.80;;;;;;5073656;28;20200;-76
2023/05/06 03:25:35;;;;;;;3.53;1.30;;;25.20;41.00;;;;;;5072923;28;20651;-74
2023/05/06 03:28:02;;;;;;;2.60;1.30;;;25.20;43.40;;;;;;5074307;28;20188;-76
2023/05/06 03:30:30;;;;;;;3.97;1.53;;;25.50;44.20;;;;;;5072859;28;20184;-74
2023/05/06 03:33:01;;;;;;;4.40;1.37;;;25.60;42.20;;;;;;5074197;28;20543;-74
2023/05/06 03:35:28;;;;;;;5.83;1.40;;;25.70;40.60;;;;;;5074053;28;20187;-75
2023/05/06 03:37:56;;;;;;;5.83;1.10;;;25.70;42.30;;;;;;5073739;28;20172;-74
2023/05/06 03:40:24;;;;;;;4.33;1.40;;;25.70;41.00;;;;;;5073890;28;20184;-73
2023/05/06 03:42:52;;;;;;;2.43;1.27;;;26.00;41.90;;;;;;5073378;28;20247;-74
2023/05/06 03:45:19;;;;;;;6.67;2.37;;;26.50;40.50;;;;;;5073671;28;20720;-76
2023/05/06 03:47:47;;;;;;;2.23;1.13;;;26.00;41.80;;;;;;5074298;28;20172;-76
2023/05/06 03:50:15;;;;;;;3.00;1.40;;;25.70;40.50;;;;;;5074093;28;20610;-73
2023/05/06 03:52:43;;;;;;;4.70;1.10;;;25.80;40.10;;;;;;5073823;28;20180;-74
2023/05/06 03:58:32;;;;;;;5.37;1.20;;;26.20;37.40;;;;;;5073317;28;20179;-73
2023/05/06 04:01:00;;;;;;;3.63;1.20;;;25.90;37.60;;;;;;5073746;28;20172;-74
2023/05/06 04:03:28;;;;;;;3.03;1.20;;;25.90;37.50;;;;;;5074083;28;20262;-74
2023/05/06 04:05:56;;;;;;;3.63;1.47;;;25.50;38.70;;;;;;5073888;28;20172;-72
2023/05/06 04:08:24;;;;;;;2.90;1.47;;;25.70;38.40;;;;;;5070805;28;20665;-74
2023/05/06 04:10:52;;;;;;;3.90;1.30;;;25.50;39.10;;;;;;5073722;28;20172;-74
2023/05/06 04:13:20;;;;;;;3.07;1.23;;;25.70;41.80;;;;;;5073906;28;20543;-73
2023/05/06 04:15:49;;;;;;;2.10;1.13;;;25.60;41.50;;;;;;5071951;28;20982;-74
2023/05/06 04:18:18;;;;;;;2.50;1.30;;;25.90;41.30;;;;;;5073633;28;20181;-72
2023/05/06 04:20:49;;;;;;;4.33;1.33;;;25.90;38.30;;;;;;5073387;28;20220;-74
2023/05/06 04:23:17;;;;;;;4.20;1.20;;;26.20;40.30;;;;;;5073283;28;20542;-74
2023/05/06 04:25:49;;;;;;;6.53;1.37;;;26.00;38.30;;;;;;5073406;28;20176;-75
2023/05/06 04:28:17;;;;;;;3.50;1.13;;;25.70;35.80;;;;;;5073564;28;20182;-74
2023/05/06 04:30:48;;;;;;;4.00;1.10;;;25.50;37.70;;;;;;5073058;28;20524;-74
2023/05/06 04:33:16;;;;;;;4.50;1.10;;;25.20;37.70;;;;;;5073506;28;20172;-75
2023/05/06 04:35:53;;;;;;;3.10;1.17;;;25.30;39.00;;;;;;5073473;28;20172;-75
2023/05/06 04:38:24;;;;;;;2.33;0.80;;;25.50;40.30;;;;;;5072638;28;20190;-76
2023/05/06 04:40:52;;;;;;;2.90;1.03;;;25.40;37.80;;;;;;5073448;28;20176;-75
2023/05/06 04:43:20;;;;;;;3.73;1.23;;;25.50;39.20;;;;;;5073288;28;20220;-75
2023/05/06 04:45:51;;;;;;;4.60;1.20;;;25.40;37.80;;;;;;5072653;28;20176;-71
2023/05/06 04:48:22;;;;;;;9.27;1.47;;;25.30;38.20;;;;;;5073203;28;20226;-74
2023/05/06 04:50:51;;;;;;;5.43;1.20;;;25.20;38.90;;;;;;5072938;28;20278;-74
2023/05/06 04:53:19;;;;;;;2.50;1.30;;;25.30;38.60;;;;;;5072825;28;20176;-72
2023/05/06 04:55:46;;;;;;;2.27;1.20;;;25.20;40.20;;;;;;5072144;28;20182;-75
2023/05/06 04:58:15;;;;;;;1.80;1.00;;;25.20;38.40;;;;;;5072694;28;20661;-71
2023/05/06 05:00:43;;;;;;;3.23;0.97;;;25.00;39.70;;;;;;5068580;28;20176;-72
2023/05/06 05:03:10;;;;;;;3.70;1.23;;;25.00;40.10;;;;;;5072307;28;20199;-75
2023/05/06 05:05:38;;;;;;;4.30;1.40;;;25.00;41.10;;;;;;5072886;28;20652;-76
2023/05/06 05:08:06;;;;;;;3.83;2.00;;;24.90;40.00;;;;;;5072467;28;20175;-75
2023/05/06 05:10:34;;;;;;;7.43;1.50;;;24.60;38.50;;;;;;5072635;28;20202;-70
2023/05/06 05:13:01;;;;;;;6.27;1.30;;;24.60;41.40;;;;;;5071525;28;20566;-73
2023/05/06 05:15:29;;;;;;;8.30;1.83;;;24.30;41.50;;;;;;5071470;28;20203;-74
2023/05/06 05:17:57;;;;;;;3.10;1.13;;;24.30;43.20;;;;;;5072026;28;20177;-73
2023/05/06 05:20:30;;;;;;;3.03;1.17;;;24.20;43.50;;;;;;5072446;28;20211;-74
2023/05/06 05:22:58;;;;;;;4.50;1.20;;;24.30;43.50;;;;;;5070834;28;20261;-70
2023/05/06 05:25:26;;;;;;;3.43;1.20;;;24.20;40.90;;;;;;5072027;28;20176;-70
2023/05/06 05:27:53;;;;;;;4.53;1.20;;;24.30;43.70;;;;;;5071991;28;20242;-73
2023/05/06 05:30:21;;;;;;;3.80;1.27;;;24.10;40.60;;;;;;5071430;28;20183;-72
2023/05/06 05:32:49;;;;;;;2.57;1.10;;;23.60;41.30;;;;;;5072016;28;20184;-72
2023/05/06 05:35:17;;;;;;;5.80;1.30;;;23.40;41.50;;;;;;5071795;28;20172;-73
2023/05/06 05:37:45;;;;;;;3.63;1.27;;;23.20;42.80;;;;;;5071153;28;20890;-73
2023/05/06 05:40:13;;;;;;;4.63;1.70;;;23.20;44.00;;;;;;5071857;28;20176;-73
2023/05/06 05:42:41;;;;;;;3.97;1.27;;;22.90;44.40;;;;;;5071637;28;20203;-75
2023/05/06 05:45:09;;;;;;;7.03;1.50;;;22.70;46.40;;;;;;5071845;28;20180;-72
2023/05/06 05:47:37;;;;;;;2.40;1.40;;;22.60;48.10;;;;;;5072234;28;20187;-73
2023/05/06 05:50:05;;;;;;;4.87;1.63;;;22.40;48.30;;;;;;5072116;28;20183;-71
2023/05/06 05:52:33;;;;;;;2.20;1.10;;;22.30;51.40;;;;;;5071772;28;20176;-73
2023/05/06 05:55:04;;;;;;;3.80;1.30;;;22.20;52.90;;;;;;5072914;28;20171;-72
2023/05/06 05:57:32;;;;;;;4.10;1.20;;;22.10;54.00;;;;;;5071548;28;20172;-73
2023/05/06 06:00:00;;;;;;;2.67;0.90;;;22.10;52.60;;;;;;5051586;28;20271;-73
2023/05/06 06:02:27;;;;;;;3.27;1.30;;;21.70;53.70;;;;;;5051996;28;20277;-74
2023/05/06 06:04:56;;;;;;;3.30;1.50;;;21.40;54.40;;;;;;5051746;28;20189;-74
2023/05/06 06:07:23;;;;;;;2.73;1.40;;;21.10;58.10;;;;;;5051627;28;20186;-75
2023/05/06 06:09:51;;;;;;;4.73;1.47;;;21.20;58.70;;;;;;5051866;28;20215;-71
2023/05/06 06:12:19;;;;;;;7.80;2.93;;;21.00;68.90;;;;;;5052001;28;20169;-73
2023/05/06 06:14:47;;;;;;;7.03;2.57;;;20.80;69.30;;;;;;5049867;28;20220;-75
2023/05/06 06:17:15;;;;;;;1.87;1.20;;;20.70;83.20;;;;;;5051860;28;20187;-72
2023/05/06 06:19:45;;;;;;;4.67;1.23;;;20.60;79.00;;;;;;5051808;28;20648;-75
2023/05/06 06:22:13;;;;;;;5.87;1.60;;;20.60;80.30;;;;;;5051155;28;20227;-73
2023/05/06 06:24:41;;;;;;;3.83;1.50;;;20.50;85.00;;;;;;5051547;28;20188;-73
2023/05/06 06:27:09;;;;;;;16.13;4.63;;;20.40;85.30;;;;;;5051802;28;20177;-73
2023/05/06 06:29:36;;;;;;;28.90;6.67;;;20.30;89.70;;;;;;5051318;28;20183;-72
2023/05/06 06:35:26;;;;;;;12.83;4.47;;;20.10;90.50;;;;;;5050635;28;20314;-72
2023/05/06 06:37:56;;;;;;;11.37;3.50;;;20.00;92.90;;;;;;5051678;28;20192;-73
2023/05/06 06:40:24;;;;;;;25.83;8.60;;;19.90;94.40;;;;;;5051614;28;20634;-74
2023/05/06 06:42:52;;;;;;;10.13;3.10;;;20.00;98.70;;;;;;5057413;28;20290;-76
2023/05/06 06:45:21;;;;;;;6.67;2.40;;;19.70;99.90;;;;;;5071485;28;20264;-76
2023/05/06 06:47:48;;;;;;;4.20;1.53;;;19.50;99.90;;;;;;5071607;28;20285;-75
2023/05/06 06:50:17;;;;;;;5.17;1.40;;;19.30;99.90;;;;;;5070954;28;20265;-72
2023/05/06 06:52:45;;;;;;;21.33;4.27;;;19.20;99.90;;;;;;5071269;28;20199;-74
2023/05/06 06:55:12;;;;;;;15.87;2.90;;;19.10;99.90;;;;;;5070798;28;20180;-73
2023/05/06 06:57:41;;;;;;;6.07;2.20;;;18.90;99.90;;;;;;5069562;28;20317;-75
2023/05/06 07:00:09;;;;;;;3.20;1.83;;;18.80;99.90;;;;;;5071416;28;20171;-73
2023/05/06 07:02:37;;;;;;;4.37;1.80;;;18.70;99.90;;;;;;5071402;28;20213;-73
2023/05/06 07:05:05;;;;;;;6.77;1.90;;;18.60;99.90;;;;;;5070589;28;20191;-73
2023/05/06 07:07:33;;;;;;;6.27;2.30;;;18.40;99.90;;;;;;5071436;28;20168;-74
2023/05/06 07:10:00;;;;;;;6.37;1.90;;;18.30;99.90;;;;;;5071412;28;20187;-74
2023/05/06 07:12:28;;;;;;;5.20;1.70;;;18.20;99.90;;;;;;5069717;28;20179;-74
2023/05/06 07:14:56;;;;;;;6.03;2.17;;;18.10;99.90;;;;;;5070916;28;20201;-72
2023/05/06 07:17:24;;;;;;;16.97;2.00;;;18.10;99.90;;;;;;5070814;28;20178;-71
2023/05/06 07:19:52;;;;;;;10.90;2.27;;;18.10;99.90;;;;;;5073827;28;20222;-75
2023/05/06 07:22:19;;;;;;;5.03;1.80;;;18.10;99.90;;;;;;5074024;28;20250;-73
2023/05/06 07:24:47;;;;;;;4.50;2.13;;;18.10;99.90;;;;;;5074367;28;20526;-73
2023/05/06 07:27:15;;;;;;;4.90;1.97;;;18.00;99.90;;;;;;5073971;28;20555;-73
2023/05/06 07:29:43;;;;;;;6.20;2.07;;;18.00;99.90;;;;;;5074110;28;20175;-74
2023/05/06 07:32:11;;;;;;;5.23;2.50;;;17.90;99.90;;;;;;5074270;28;20584;-73
2023/05/06 07:34:39;;;;;;;4.53;1.93;;;17.80;99.90;;;;;;5072524;28;20184;-73
2023/05/06 07:37:07;;;;;;;5.63;2.17;;;17.80;99.90;;;;;;5074327;28;20186;-71
2023/05/06 07:39:35;;;;;;;4.43;2.10;;;17.60;99.90;;;;;;5072909;28;20529;-75
2023/05/06 07:42:02;;;;;;;5.53;2.00;;;17.60;99.90;;;;;;5073525;28;20187;-73
2023/05/06 07:44:30;;;;;;;3.13;1.70;;;17.50;99.90;;;;;;5074202;28;20216;-73
2023/05/06 07:46:58;;;;;;;5.03;1.70;;;17.50;99.90;;;;;;5074297;28;20176;-74
2023/05/06 07:49:27;;;;;;;5.57;1.80;;;17.30;99.90;;;;;;5073692;28;20628;-72
2023/05/06 07:51:56;;;;;;;5.50;2.30;;;17.30;99.90;;;;;;5073673;28;20196;-72
2023/05/06 07:54:24;;;;;;;3.53;2.00;;;17.30;99.90;;;;;;5073668;28;20683;-73
2023/05/06 07:56:51;;;;;;;10.33;2.40;;;17.20;99.90;;;;;;5073451;28;20176;-74
2023/05/06 07:59:19;;;;;;;4.53;2.20;;;17.20;99.90;;;;;;5074092;28;20177;-73
2023/05/06 08:01:50;;;;;;;4.73;2.00;;;17.20;99.90;;;;;;5073937;28;20711;-73
2023/05/06 08:04:18;;;;;;;4.57;2.13;;;17.10;99.90;;;;;;5072797;28;20216;-73
2023/05/06 08:06:45;;;;;;;5.40;2.10;;;17.10;99.90;;;;;;5073563;28;20168;-73
2023/05/06 08:09:13;;;;;;;8.03;2.10;;;17.00;99.90;;;;;;5074147;28;20254;-73
2023/05/06 08:11:41;;;;;;;7.33;1.80;;;16.90;99.90;;;;;;5074930;28;20195;-74
2023/05/06 08:14:09;;;;;;;5.47;2.60;;;16.80;99.90;;;;;;5072834;28;20637;-73
2023/05/06 08:16:37;;;;;;;7.07;2.70;;;16.60;99.90;;;;;;5074464;28;20643;-72
2023/05/06 08:19:04;;;;;;;4.10;2.30;;;16.50;99.90;;;;;;5074649;28;20176;-75
2023/05/06 08:21:32;;;;;;;6.70;2.87;;;16.40;99.90;;;;;;5074584;28;20248;-72
2023/05/06 08:24:00;;;;;;;5.37;2.67;;;16.30;99.90;;;;;;5074115;28;20648;-71
2023/05/06 08:26:27;;;;;;;6.40;2.43;;;16.20;99.90;;;;;;5073119;28;20172;-71
2023/05/06 08:28:56;;;;;;;5.53;2.20;;;16.20;99.90;;;;;;5074175;28;20212;-68
2023/05/06 08:31:24;;;;;;;9.00;3.07;;;16.00;99.90;;;;;;5074371;28;20176;-72
2023/05/06 08:33:52;;;;;;;6.30;2.90;;;15.90;99.90;;;;;;5074303;28;20176;-72
2023/05/06 08:36:20;;;;;;;8.40;2.70;;;15.80;99.90;;;;;;5073965;28;20195;-73
2023/05/06 08:38:49;;;;;;;6.53;2.57;;;15.80;99.90;;;;;;5074342;28;20221;-72
2023/05/06 08:41:21;;;;;;;4.33;2.70;;;15.70;99.90;;;;;;5074121;28;20183;-72
2023/05/06 08:43:50;;;;;;;5.20;2.30;;;15.60;99.90;;;;;;5076142;28;20215;-68
2023/05/06 08:46:18;;;;;;;5.87;3.00;;;15.50;99.90;;;;;;5074029;28;20171;-71
2023/05/06 08:48:46;;;;;;;4.50;2.20;;;15.40;99.90;;;;;;5073995;28;20188;-73
2023/05/06 08:51:15;;;;;;;5.47;2.87;;;15.40;99.90;;;;;;5073876;28;20625;-73
2023/05/06 08:53:48;;;;;;;8.57;2.70;;;15.30;99.90;;;;;;5073914;28;20183;-73
2023/05/06 08:56:17;;;;;;;4.97;3.77;;;15.30;99.90;;;;;;5074113;28;20262;-73
2023/05/06 08:58:47;;;;;;;7.67;4.00;;;15.30;99.90;;;;;;5073777;28;20180;-71
2023/05/06 09:01:15;;;;;;;8.33;4.23;;;15.30;99.90;;;;;;5072449;28;20229;-71
2023/05/06 09:03:43;;;;;;;5.80;3.97;;;15.20;99.90;;;;;;5073713;28;20219;-73
2023/05/06 09:06:11;;;;;;;10.33;3.80;;;15.20;99.90;;;;;;5072188;28;20180;-71
2023/05/06 09:08:38;;;;;;;9.27;4.57;;;15.10;99.90;;;;;;5073266;28;20168;-74
2023/05/06 09:11:28;;;;;;;7.73;3.77;;;15.00;99.90;;;;;;5076316;28;20172;-72
2023/05/06 09:14:16;;;;;;;8.60;3.40;;;14.90;99.90;;;;;;5073606;28;20218;-72
2023/05/06 09:16:49;;;;;;;6.47;3.23;;;14.80;99.90;;;;;;5074611;28;20636;-72
2023/05/06 09:19:19;;;;;;;9.90;4.17;;;14.70;99.90;;;;;;5073122;28;20598;-71
2023/05/06 09:21:49;;;;;;;6.60;3.87;;;14.60;99.90;;;;;;5073125;28;20670;-72
2023/05/06 09:24:17;;;;;;;8.80;3.60;;;14.60;99.90;;;;;;5073051;28;20649;-73
2023/05/06 09:26:46;;;;;;;12.67;4.80;;;14.50;99.90;;;;;;5072958;28;20709;-72
2023/05/06 09:29:14;;;;;;;11.47;6.20;;;14.50;99.90;;;;;;5072986;28;20183;-71
2023/05/06 09:31:45;;;;;;;12.03;6.07;;;14.50;99.90;;;;;;5073141;28;20176;-72
2023/05/06 09:34:13;;;;;;;7.73;5.90;;;14.50;99.90;;;;;;5072822;28;20268;-72
2023/05/06 09:36:41;;;;;;;15.10;7.33;;;14.50;99.90;;;;;;5073018;28;20637;-72
2023/05/06 09:39:09;;;;;;;19.53;8.47;;;14.50;99.90;;;;;;5071592;28;20186;-71
2023/05/06 09:41:37;;;;;;;12.30;7.60;;;14.40;99.90;;;;;;5072529;28;20199;-72
2023/05/06 09:44:05;;;;;;;12.80;6.27;;;14.40;99.90;;;;;;5072775;28;20292;-72
2023/05/06 09:46:33;;;;;;;9.67;6.00;;;14.30;99.90;;;;;;5072844;28;20175;-73
2023/05/06 09:49:02;;;;;;;15.20;6.30;;;14.20;99.90;;;;;;5072575;28;20264;-70
2023/05/06 09:51:31;;;;;;;13.13;6.33;;;14.10;99.90;;;;;;5072968;28;20211;-72
2023/05/06 09:54:00;;;;;;;12.47;6.43;;;14.10;99.90;;;;;;5072277;28;20176;-71
2023/05/06 09:56:32;;;;;;;12.17;7.13;;;14.10;99.90;;;;;;5071528;28;20198;-72
2023/05/06 09:59:02;;;;;;;13.20;7.20;;;14.00;99.90;;;;;;5072834;28;20178;-72
2023/05/06 10:01:32;;;;;;;13.03;5.97;;;14.00;99.90;;;;;;5072853;28;20641;-72
2023/05/06 10:04:03;;;;;;;12.97;6.50;;;13.90;99.90;;;;;;5072537;28;20282;-73
2023/05/06 10:06:34;;;;;;;9.20;6.00;;;13.90;99.90;;;;;;5072650;28;20179;-74
2023/05/06 10:09:02;;;;;;;9.13;5.57;;;13.80;99.90;;;;;;5072304;28;20174;-72
2023/05/06 10:11:31;;;;;;;8.07;5.70;;;13.80;99.90;;;;;;5072518;28;20175;-70
2023/05/06 10:14:00;;;;;;;15.17;6.03;;;13.70;99.90;;;;;;5072458;28;20191;-73
2023/05/06 10:16:29;;;;;;;9.77;5.90;;;13.60;99.90;;;;;;5072475;28;20175;-72
2023/05/06 10:18:59;;;;;;;11.47;6.30;;;13.60;99.90;;;;;;5072411;28;20183;-73
2023/05/06 10:21:33;;;;;;;12.80;6.93;;;13.50;99.90;;;;;;5072340;28;20250;-72
2023/05/06 10:24:11;;;;;;;15.50;7.97;;;13.50;99.90;;;;;;5072049;28;20206;-72
2023/05/06 10:26:40;;;;;;;19.67;7.57;;;13.50;99.90;;;;;;5072385;28;20527;-71
2023/05/06 10:29:12;;;;;;;12.33;7.97;;;13.50;99.90;;;;;;5072680;28;20178;-69
2023/05/06 10:31:56;;;;;;;11.87;7.37;;;13.40;99.90;;;;;;5072479;28;20171;-70
2023/05/06 10:34:25;;;;;;;12.37;7.60;;;13.30;99.90;;;;;;5071852;28;20595;-72
2023/05/06 10:36:56;;;;;;;13.07;7.77;;;13.30;99.90;;;;;;5072218;28;20258;-71
2023/05/06 10:39:25;;;;;;;14.57;8.67;;;13.30;99.90;;;;;;5072120;28;20500;-70
2023/05/06 10:41:53;;;;;;;14.07;7.77;;;13.20;99.90;;;;;;5072380;28;20222;-73
2023/05/06 10:44:56;;;;;;;12.73;7.93;;;13.20;99.90;;;;;;5072199;28;20215;-69
2023/05/06 10:47:25;;;;;;;19.20;7.93;;;13.10;99.90;;;;;;5071971;28;20175;-71
2023/05/06 10:50:21;;;;;;;15.93;7.17;;;13.00;99.90;;;;;;5071881;28;20175;-69
2023/05/06 10:52:54;;;;;;;13.20;7.80;;;12.90;99.90;;;;;;5074145;28;20190;-72
2023/05/06 10:55:32;;;;;;;11.83;6.97;;;12.90;99.90;;;;;;5075715;28;20232;-71
2023/05/06 10:58:14;;;;;;;12.73;7.40;;;12.90;99.90;;;;;;5076188;28;20178;-71
2023/05/06 11:00:52;;;;;;;14.33;7.10;;;12.90;99.90;;;;;;5075650;28;20183;-71
2023/05/06 11:03:23;;;;;;;11.37;7.60;;;12.80;99.90;;;;;;5076032;28;20687;-72
2023/05/06 11:05:51;;;;;;;17.70;8.87;;;12.80;99.90;;;;;;5075520;28;20190;-72
2023/05/06 11:08:26;;;;;;;16.17;8.93;;;12.70;99.90;;;;;;5075520;28;20636;-69
2023/05/06 11:10:54;;;;;;;16.73;8.20;;;12.70;99.90;;;;;;5075774;28;20190;-69
2023/05/06 11:13:33;;;;;;;13.10;7.80;;;12.60;99.90;;;;;;5075640;28;20283;-72
2023/05/06 11:16:01;;;;;;;14.73;7.70;;;12.60;99.90;;;;;;5075641;28;20231;-73
2023/05/06 11:18:35;;;;;;;12.57;6.93;;;12.50;99.90;;;;;;5075256;28;20228;-72
2023/05/06 11:21:03;;;;;;;9.97;7.40;;;12.50;99.90;;;;;;5075341;28;20316;-71
2023/05/06 11:23:50;;;;;;;16.63;8.70;;;12.50;99.90;;;;;;5075311;28;20207;-71
2023/05/06 11:26:19;;;;;;;15.70;8.63;;;12.50;99.90;;;;;;5075587;28;20200;-73
2023/05/06 11:28:50;;;;;;;15.77;7.87;;;12.50;99.90;;;;;;5075053;28;20206;-72
2023/05/06 11:31:18;;;;;;;15.57;7.70;;;12.40;99.90;;;;;;5075428;28;20183;-72
2023/05/06 11:33:48;;;;;;;12.97;7.13;;;12.40;99.90;;;;;;5074872;28;20179;-73
2023/05/06 11:36:20;;;;;;;11.47;6.50;;;12.30;99.90;;;;;;5075606;28;20177;-72
2023/05/06 11:38:50;;;;;;;15.87;7.67;;;12.30;99.90;;;;;;5075174;28;20201;-71
2023/05/06 11:41:18;;;;;;;10.63;7.73;;;12.30;99.90;;;;;;5075462;28;20186;-72
2023/05/06 11:43:55;;;;;;;14.67;8.00;;;12.20;99.90;;;;;;5074777;28;20237;-72
2023/05/06 11:46:29;;;;;;;11.27;7.07;;;12.20;99.90;;;;;;5075388;28;20175;-70
2023/05/06 11:48:57;;;;;;;14.17;7.63;;;12.10;99.90;;;;;;5075145;28;20209;-71
2023/05/06 11:51:25;;;;;;;15.33;7.90;;;12.10;99.90;;;;;;5074947;28;20202;-70
2023/05/06 11:54:08;;;;;;;14.83;7.80;;;12.10;99.90;;;;;;5073873;28;20178;-73
2023/05/06 11:56:50;;;;;;;13.97;7.60;;;12.00;99.90;;;;;;5074821;28;20183;-72
2023/05/06 11:59:29;;;;;;;11.10;7.40;;;12.00;99.90;;;;;;5074330;28;20658;-74
2023/05/06 12:02:02;;;;;;;16.97;7.53;;;12.00;99.90;;;;;;5074966;28;20660;-73
2023/05/06 12:04:45;;;;;;;15.20;7.10;;;11.80;99.90;;;;;;5073419;28;20233;-72
2023/05/06 12:07:14;;;;;;;12.70;7.87;;;11.80;99.90;;;;;;5073977;28;20177;-72
2023/05/06 12:09:50;;;;;;;12.77;7.20;;;11.70;99.90;;;;;;5074904;28;20185;-73
2023/05/06 12:12:23;;;;;;;13.10;7.47;;;11.80;99.90;;;;;;5074339;28;20256;-72
2023/05/06 12:14:53;;;;;;;12.43;7.03;;;11.70;99.90;;;;;;5073627;28;20170;-72
2023/05/06 12:17:21;;;;;;;11.23;7.27;;;11.60;99.90;;;;;;5074245;28;20262;-73
2023/05/06 12:19:49;;;;;;;12.27;7.60;;;11.50;99.90;;;;;;5074606;28;20702;-73
2023/05/06 12:22:26;;;;;;;12.90;6.90;;;11.50;99.90;;;;;;5074087;28;20310;-73
2023/05/06 12:24:54;;;;;;;12.27;7.00;;;11.40;99.90;;;;;;5072235;28;20198;-73
2023/05/06 12:27:35;;;;;;;14.87;7.67;;;11.40;99.90;;;;;;5074199;28;20304;-72
2023/05/06 12:30:03;;;;;;;12.03;6.73;;;11.40;99.90;;;;;;5073997;28;20178;-73
2023/05/06 12:32:31;;;;;;;14.60;6.70;;;11.40;99.90;;;;;;5074309;28;20185;-72
2023/05/06 12:35:04;;;;;;;11.37;7.73;;;11.40;99.90;;;;;;5073322;28;20555;-73
2023/05/06 12:37:32;;;;;;;12.67;7.07;;;11.30;99.90;;;;;;5073119;28;20190;-73
2023/05/06 12:40:00;;;;;;;11.73;6.90;;;11.30;99.90;;;;;;5073365;28;20265;-72
2023/05/06 12:42:27;;;;;;;12.37;7.10;;;11.30;99.90;;;;;;5074271;28;20690;-73
2023/05/06 12:44:55;;;;;;;11.07;7.03;;;11.20;99.90;;;;;;5073194;28;20193;-74
2023/05/06 12:47:26;;;;;;;13.83;6.90;;;11.20;99.90;;;;;;5073771;28;20242;-68
2023/05/06 12:49:58;;;;;;;11.87;7.27;;;11.30;99.90;;;;;;5072271;28;20216;-72
2023/05/06 12:52:28;;;;;;;15.27;7.77;;;11.30;99.90;;;;;;5073817;28;20191;-74
2023/05/06 12:54:57;;;;;;;12.73;7.97;;;11.30;99.90;;;;;;5073371;28;20190;-74
2023/05/06 12:57:25;;;;;;;12.73;7.27;;;11.30;99.90;;;;;;5073947;28;20182;-74
2023/05/06 12:59:55;;;;;;;13.97;7.10;;;11.20;99.90;;;;;;5073645;28;20190;-73
2023/05/06 13:02:22;;;;;;;11.87;7.33;;;11.20;99.90;;;;;;5073538;28;20178;-73
2023/05/06 13:04:50;;;;;;;12.67;7.10;;;11.30;99.90;;;;;;5073143;28;20209;-73
2023/05/06 13:07:18;;;;;;;13.27;7.33;;;11.30;99.90;;;;;;5072259;28;20656;-73